createdAt,value
2023-05-25T00:25:40.004Z,10.63
2023-05-25T00:35:19.303Z,8.95
2023-05-25T01:04:40.625Z,8.75
2023-05-25T01:28:23.522Z,8.45
2023-05-25T01:31:34.270Z,8.13
2023-05-25T01:34:05.881Z,6.65
2023-05-25T01:36:34.049Z,7.60
2023-05-25T01:39:10.462Z,8.40
2023-05-25T01:41:39.330Z,8.00
2023-05-25T01:44:09.656Z,9.02
2023-05-25T01:46:41.263Z,8.32
2023-05-25T01:49:32.485Z,8.00
2023-05-25T01:52:12.457Z,8.50
2023-05-25T01:54:46.082Z,9.13
2023-05-25T01:57:18.937Z,8.57
2023-05-25T01:59:48.431Z,8.27
2023-05-25T02:02:19.254Z,8.55
2023-05-25T02:04:47.637Z,8.05
2023-05-25T02:07:16.847Z,8.57
2023-05-25T02:09:44.753Z,8.07
2023-05-25T02:12:14.903Z,8.18
2023-05-25T02:14:42.654Z,8.45
2023-05-25T02:17:12.883Z,8.50
2023-05-25T02:19:40.533Z,8.77
2023-05-25T02:22:07.854Z,9.35
2023-05-25T02:24:36.988Z,9.43
2023-05-25T02:27:05.977Z,9.13
2023-05-25T02:29:33.553Z,8.73
2023-05-25T02:32:01.479Z,8.23
2023-05-25T02:34:29.132Z,9.00
2023-05-25T02:36:57.999Z,10.20
2023-05-25T02:39:28.055Z,9.50
2023-05-25T02:41:56.880Z,9.10
2023-05-25T02:44:24.399Z,9.27
2023-05-25T02:46:51.811Z,9.13
2023-05-25T02:49:19.183Z,9.38
2023-05-25T02:51:48.343Z,8.65
2023-05-25T02:54:21.700Z,8.10
2023-05-25T02:56:49.351Z,9.32
2023-05-25T02:59:17.976Z,9.10
2023-05-25T03:01:46.565Z,8.55
2023-05-25T03:04:14.372Z,9.10
2023-05-25T03:06:41.766Z,8.75
2023-05-25T03:09:13.801Z,9.80
2023-05-25T03:11:42.914Z,10.07
2023-05-25T03:14:14.700Z,10.00
2023-05-25T03:16:45.845Z,10.15
2023-05-25T03:19:13.759Z,10.20
2023-05-25T03:21:41.946Z,10.85
2023-05-25T03:24:11.943Z,10.30
2023-05-25T03:26:41.287Z,10.60
2023-05-25T03:29:09.365Z,10.25
2023-05-25T03:31:36.997Z,10.50
2023-05-25T03:34:06.582Z,9.30
2023-05-25T03:36:37.664Z,10.27
2023-05-25T03:39:07.370Z,9.77
2023-05-25T03:41:34.914Z,9.25
2023-05-25T03:44:02.142Z,10.25
2023-05-25T03:46:29.756Z,10.18
2023-05-25T03:48:58.259Z,10.52
2023-05-25T03:51:25.838Z,9.90
2023-05-25T03:53:53.251Z,10.05
2023-05-25T03:56:21.793Z,9.50
2023-05-25T03:58:50.279Z,9.07
2023-05-25T04:01:21.127Z,9.00
2023-05-25T04:03:50.427Z,8.43
2023-05-25T04:06:19.476Z,8.00
2023-05-25T04:08:48.518Z,8.65
2023-05-25T04:11:15.863Z,7.90
2023-05-25T04:13:50.213Z,8.95
2023-05-25T04:16:24.868Z,8.48
2023-05-25T04:18:58.818Z,7.45
2023-05-25T04:21:27.230Z,7.53
2023-05-25T04:23:55.410Z,7.93
2023-05-25T04:26:29.305Z,7.70
2023-05-25T04:29:10.198Z,7.75
2023-05-25T04:31:59.594Z,7.72
2023-05-25T04:34:37.394Z,8.38
2023-05-25T04:37:15.015Z,8.00
2023-05-25T04:39:55.000Z,8.05
2023-05-25T04:42:29.074Z,7.75
2023-05-25T04:44:57.190Z,7.03
2023-05-25T04:47:26.230Z,6.25
2023-05-25T04:49:55.346Z,6.72
2023-05-25T04:52:23.746Z,6.07
2023-05-25T04:54:59.640Z,6.30
2023-05-25T04:57:32.829Z,6.20
2023-05-25T05:00:12.998Z,6.50
2023-05-25T05:02:44.416Z,5.85
2023-05-25T05:05:14.247Z,6.30
2023-05-25T05:07:42.159Z,5.97
2023-05-25T05:10:10.096Z,6.40
2023-05-25T05:12:40.277Z,6.38
2023-05-25T05:15:08.966Z,6.03
2023-05-25T05:17:41.962Z,5.85
2023-05-25T05:20:16.043Z,6.03
2023-05-25T05:22:44.344Z,5.22
2023-05-25T05:25:25.216Z,5.63
2023-05-25T05:27:53.129Z,5.90
2023-05-25T05:32:56.134Z,6.25
2023-05-25T05:35:27.134Z,5.70
2023-05-25T05:38:06.458Z,5.60
2023-05-25T05:40:34.096Z,6.03
2023-05-25T05:43:02.010Z,5.38
2023-05-25T05:45:29.848Z,6.82
2023-05-25T05:47:58.243Z,6.57
2023-05-25T05:50:29.379Z,6.00
2023-05-25T05:52:59.259Z,5.30
2023-05-25T05:55:29.616Z,5.65
2023-05-25T05:57:58.243Z,5.15
2023-05-25T06:00:26.466Z,5.90
2023-05-25T06:02:58.466Z,5.20
2023-05-25T06:05:28.103Z,5.50
2023-05-25T06:07:56.495Z,5.72
2023-05-25T06:10:24.093Z,5.72
2023-05-25T06:12:52.984Z,6.00
2023-05-25T06:15:20.439Z,5.60
2023-05-25T06:17:50.882Z,5.70
2023-05-25T06:20:22.087Z,6.03
2023-05-25T06:22:51.448Z,5.57
2023-05-25T06:25:21.171Z,6.03
2023-05-25T06:27:53.843Z,5.25
2023-05-25T06:30:29.144Z,5.60
2023-05-25T06:32:57.758Z,5.30
2023-05-25T06:35:34.637Z,5.10
2023-05-25T06:38:24.401Z,5.15
2023-05-25T06:41:07.373Z,5.28
2023-05-25T06:43:41.279Z,4.93
2023-05-25T06:46:50.241Z,5.60
2023-05-25T06:49:19.558Z,5.57
2023-05-25T06:51:47.019Z,6.03
2023-05-25T06:54:15.619Z,5.47
2023-05-25T06:56:44.913Z,5.50
2023-05-25T06:59:15.646Z,5.90
2023-05-25T07:01:45.423Z,5.47
2023-05-25T07:04:12.986Z,5.68
2023-05-25T07:06:40.475Z,5.03
2023-05-25T07:09:08.318Z,4.97
2023-05-25T07:11:49.053Z,4.97
2023-05-25T07:14:18.331Z,5.25
2023-05-25T07:16:48.795Z,5.32
2023-05-25T07:19:16.630Z,5.50
2023-05-25T07:21:44.304Z,5.60
2023-05-25T07:24:11.961Z,5.60
2023-05-25T07:26:40.744Z,5.45
2023-05-25T07:29:12.555Z,5.03
2023-05-25T07:31:40.274Z,4.90
2023-05-25T07:34:10.887Z,5.43
2023-05-25T07:36:38.570Z,5.70
2023-05-25T07:42:06.384Z,5.07
2023-05-25T07:44:33.896Z,5.63
2023-05-25T07:47:03.157Z,4.50
2023-05-25T07:49:31.217Z,4.97
2023-05-25T07:51:59.019Z,5.50
2023-05-25T07:54:26.794Z,4.93
2023-05-25T07:56:54.511Z,4.95
2023-05-25T07:59:22.272Z,5.50
2023-05-25T08:01:52.763Z,5.60
2023-05-25T08:04:20.689Z,5.53
2023-05-25T08:06:50.393Z,5.70
2023-05-25T08:09:17.942Z,4.70
2023-05-25T08:11:47.681Z,4.70
2023-05-25T08:14:15.855Z,4.88
2023-05-25T08:16:47.256Z,4.93
2023-05-25T08:19:17.304Z,4.90
2023-05-25T08:21:44.966Z,5.53
2023-05-25T08:24:16.461Z,5.13
2023-05-25T08:26:54.866Z,5.78
2023-05-25T08:29:22.812Z,7.10
2023-05-25T08:31:51.485Z,7.30
2023-05-25T08:34:19.160Z,6.22
2023-05-25T08:36:49.771Z,6.20
2023-05-25T08:39:17.921Z,5.57
2023-05-25T08:41:50.283Z,5.10
2023-05-25T08:44:18.005Z,4.90
2023-05-25T08:46:49.750Z,5.05
2023-05-25T08:49:17.483Z,4.97
2023-05-25T08:51:55.700Z,5.45
2023-05-25T08:54:28.052Z,4.53
2023-05-25T08:57:20.110Z,4.72
2023-05-25T08:59:53.744Z,4.70
2023-05-25T09:02:27.590Z,4.57
2023-05-25T09:04:56.324Z,4.95
2023-05-25T09:07:25.225Z,4.05
2023-05-25T09:09:53.574Z,4.57
2023-05-25T09:16:30.623Z,3.80
2023-05-25T09:19:17.908Z,3.55
2023-05-25T09:22:14.852Z,3.10
2023-05-25T09:25:13.707Z,3.40
2023-05-25T09:28:34.571Z,2.80
2023-05-25T09:32:27.099Z,3.50
2023-05-25T09:35:17.365Z,3.40
2023-05-25T09:38:38.552Z,3.47
2023-05-25T09:41:11.594Z,3.60
2023-05-25T09:43:44.958Z,4.32
2023-05-25T09:46:22.078Z,4.20
2023-05-25T09:48:53.758Z,3.90
2023-05-25T09:51:47.943Z,4.20
2023-05-25T09:54:44.913Z,4.07
2023-05-25T09:57:12.763Z,3.90
2023-05-25T10:00:22.933Z,3.97
2023-05-25T10:02:56.903Z,3.28
2023-05-25T10:05:27.780Z,3.53
2023-05-25T10:08:08.314Z,3.38
2023-05-25T10:10:44.667Z,3.58
2023-05-25T10:13:42.718Z,3.22
2023-05-25T10:16:21.653Z,3.90
2023-05-25T10:19:04.961Z,3.22
2023-05-25T10:21:35.281Z,3.45
2023-05-25T10:24:21.129Z,4.50
2023-05-25T10:26:54.974Z,5.05
2023-05-25T10:29:25.870Z,6.57
2023-05-25T10:32:15.790Z,5.53
2023-05-25T10:34:51.117Z,4.93
2023-05-25T10:37:33.353Z,6.10
2023-05-25T10:40:12.168Z,5.93
2023-05-25T10:42:41.569Z,5.53
2023-05-25T10:45:20.032Z,5.50
2023-05-25T10:47:51.356Z,5.10
2023-05-25T10:50:26.615Z,5.10
2023-05-25T10:53:13.220Z,4.80
2023-05-25T10:55:48.989Z,5.18
2023-05-25T10:58:19.212Z,4.82
2023-05-25T11:01:01.320Z,4.88
2023-05-25T11:04:11.448Z,5.53
2023-05-25T11:06:41.273Z,4.97
2023-05-25T11:09:24.912Z,4.75
2023-05-25T11:11:58.299Z,4.32
2023-05-25T11:18:14.779Z,5.47
2023-05-25T11:20:43.276Z,4.50
2023-05-25T11:23:26.873Z,5.25
2023-05-25T11:26:06.947Z,4.30
2023-05-25T11:28:34.781Z,4.88
2023-05-25T11:31:02.688Z,4.68
2023-05-25T11:33:33.600Z,4.40
2023-05-25T11:36:01.830Z,4.60
2023-05-25T11:38:31.896Z,5.20
2023-05-25T11:40:59.689Z,4.72
2023-05-25T11:43:28.338Z,4.53
2023-05-25T11:46:01.001Z,4.50
2023-05-25T11:48:28.701Z,5.10
2023-05-25T11:51:06.917Z,5.05
2023-05-25T11:53:34.861Z,5.05
2023-05-25T11:56:08.081Z,4.40
2023-05-25T11:58:36.436Z,4.15
2023-05-25T12:01:33.339Z,4.38
2023-05-25T12:04:09.469Z,4.25
2023-05-25T12:06:37.110Z,4.53
2023-05-25T12:09:08.374Z,4.13
2023-05-25T12:11:38.952Z,4.10
2023-05-25T12:14:07.697Z,4.57
2023-05-25T12:16:39.233Z,4.20
2023-05-25T12:19:08.646Z,4.20
2023-05-25T12:21:39.079Z,4.88
2023-05-25T12:24:10.555Z,4.50
2023-05-25T12:26:57.692Z,4.00
2023-05-25T12:29:26.553Z,4.20
2023-05-25T12:31:54.148Z,4.75
2023-05-25T12:34:21.935Z,4.40
2023-05-25T12:36:54.210Z,4.07
2023-05-25T12:39:24.691Z,4.05
2023-05-25T12:41:57.058Z,4.03
2023-05-25T12:44:27.865Z,4.05
2023-05-25T12:46:57.513Z,4.30
2023-05-25T12:49:32.807Z,4.28
2023-05-25T12:52:02.804Z,4.25
2023-05-25T12:54:46.927Z,3.40
2023-05-25T12:57:16.988Z,4.03
2023-05-25T12:59:46.943Z,3.60
2023-05-25T13:02:16.075Z,4.15
2023-05-25T13:04:44.987Z,3.80
2023-05-25T13:07:14.967Z,4.05
2023-05-25T13:09:42.778Z,4.10
2023-05-25T13:12:10.946Z,3.70
2023-05-25T13:14:38.346Z,3.45
2023-05-25T13:17:06.097Z,3.70
2023-05-25T13:19:33.926Z,3.65
2023-05-25T13:22:01.327Z,3.47
2023-05-25T13:24:28.787Z,3.90
2023-05-25T13:26:56.232Z,4.10
2023-05-25T13:29:25.821Z,3.63
2023-05-25T13:31:53.540Z,3.80
2023-05-25T13:34:22.923Z,3.28
2023-05-25T13:36:52.389Z,3.20
2023-05-25T13:39:20.150Z,3.80
2023-05-25T13:41:48.344Z,3.25
2023-05-25T13:44:17.598Z,3.22
2023-05-25T13:46:45.515Z,3.55
2023-05-25T13:49:15.434Z,3.20
2023-05-25T13:51:43.844Z,3.03
2023-05-25T13:54:15.057Z,3.40
2023-05-25T13:56:52.831Z,3.35
2023-05-25T13:59:20.468Z,3.70
2023-05-25T14:01:49.703Z,3.75
2023-05-25T14:04:17.631Z,3.50
2023-05-25T14:06:47.342Z,3.63
2023-05-25T14:09:14.865Z,3.05
2023-05-25T14:11:42.238Z,3.58
2023-05-25T14:14:23.203Z,3.45
2023-05-25T14:16:57.992Z,3.33
2023-05-25T14:19:29.349Z,3.42
2023-05-25T14:24:40.537Z,3.33
2023-05-25T14:27:10.082Z,3.60
2023-05-25T14:29:39.795Z,3.42
2023-05-25T14:32:07.489Z,3.70
2023-05-25T14:34:34.994Z,3.17
2023-05-25T14:37:02.673Z,3.58
2023-05-25T14:39:30.351Z,3.08
2023-05-25T14:41:57.813Z,3.40
2023-05-25T14:44:25.364Z,3.60
2023-05-25T14:46:52.963Z,3.45
2023-05-25T14:49:25.154Z,3.72
2023-05-25T14:51:53.194Z,4.03
2023-05-25T14:54:21.404Z,3.55
2023-05-25T14:56:49.203Z,4.03
2023-05-25T14:59:17.252Z,3.90
2023-05-25T15:01:46.803Z,3.60
2023-05-25T15:04:14.509Z,4.10
2023-05-25T15:06:42.385Z,4.07
2023-05-25T15:09:09.974Z,4.35
2023-05-25T15:11:39.975Z,4.22
2023-05-25T15:14:09.507Z,3.80
2023-05-25T15:16:38.507Z,4.15
2023-05-25T15:19:11.421Z,3.70
2023-05-25T15:21:45.554Z,4.07
2023-05-25T15:24:16.967Z,4.45
2023-05-25T15:26:44.613Z,4.72
2023-05-25T15:29:12.280Z,3.83
2023-05-25T15:31:40.124Z,4.22
2023-05-25T15:34:13.268Z,4.15
2023-05-25T15:36:43.303Z,4.40
2023-05-25T15:39:18.707Z,4.15
2023-05-25T15:41:57.616Z,4.60
2023-05-25T15:44:30.439Z,4.75
2023-05-25T15:47:04.152Z,4.40
2023-05-25T15:49:32.471Z,4.65
2023-05-25T15:52:03.327Z,5.57
2023-05-25T15:54:35.857Z,5.45
2023-05-25T15:57:03.491Z,5.90
2023-05-25T15:59:31.066Z,5.35
2023-05-25T16:01:59.240Z,6.40
2023-05-25T16:04:27.613Z,6.47
2023-05-25T16:06:55.288Z,6.40
2023-05-25T16:09:23.969Z,6.70
2023-05-25T16:11:54.363Z,6.40
2023-05-25T16:14:29.420Z,6.43
2023-05-25T16:17:02.271Z,6.38
2023-05-25T16:19:32.498Z,7.00
2023-05-25T16:22:00.169Z,6.65
2023-05-25T16:24:28.237Z,7.55
2023-05-25T16:26:57.856Z,7.28
2023-05-25T16:29:25.829Z,7.10
2023-05-25T16:31:56.886Z,7.03
2023-05-25T16:34:24.860Z,7.10
2023-05-25T16:41:49.496Z,8.13
2023-05-25T16:44:18.601Z,7.47
2023-05-25T16:46:47.047Z,7.63
2023-05-25T16:49:14.967Z,7.90
2023-05-25T16:51:53.400Z,7.90
2023-05-25T16:54:21.174Z,7.82
2023-05-25T16:56:48.694Z,7.22
2023-05-25T16:59:16.183Z,6.78
2023-05-25T17:01:43.754Z,7.28
2023-05-25T17:04:11.798Z,7.78
2023-05-25T17:06:41.623Z,7.20
2023-05-25T17:09:12.544Z,7.18
2023-05-25T17:11:43.321Z,7.50
2023-05-25T17:14:10.911Z,7.35
2023-05-25T17:16:38.965Z,7.78
2023-05-25T17:19:08.001Z,8.00
2023-05-25T17:22:18.620Z,8.25
2023-05-25T17:24:52.226Z,8.20
2023-05-25T17:27:19.958Z,8.13
2023-05-25T17:29:51.924Z,8.07
2023-05-25T17:32:21.232Z,8.00
2023-05-25T17:35:04.352Z,7.90
2023-05-25T17:37:41.715Z,8.48
2023-05-25T17:40:16.956Z,7.85
2023-05-25T17:42:46.013Z,8.65
2023-05-25T17:45:13.687Z,8.95
2023-05-25T17:47:46.021Z,8.77
2023-05-25T17:50:13.816Z,8.65
2023-05-25T17:52:42.710Z,9.13
2023-05-25T17:55:11.900Z,9.90
2023-05-25T17:57:41.258Z,8.95
2023-05-25T18:00:09.283Z,9.45
2023-05-25T18:02:46.941Z,9.02
2023-05-25T18:05:14.643Z,8.65
2023-05-25T18:07:42.290Z,8.95
2023-05-25T18:10:10.549Z,9.00
2023-05-25T18:12:41.728Z,8.63
2023-05-25T18:15:09.598Z,9.48
2023-05-25T18:17:37.668Z,9.35
2023-05-25T18:20:06.492Z,8.68
2023-05-25T18:22:33.999Z,9.85
2023-05-25T18:25:01.859Z,9.57
2023-05-25T18:27:32.645Z,9.00
2023-05-25T18:30:00.211Z,8.80
2023-05-25T18:32:27.967Z,9.30
2023-05-25T18:34:58.578Z,8.90
2023-05-25T18:37:27.188Z,8.00
2023-05-25T18:39:58.722Z,8.00
2023-05-25T18:42:27.377Z,8.52
2023-05-25T18:44:55.985Z,7.85
2023-05-25T18:47:23.852Z,7.75
2023-05-25T18:49:54.237Z,8.45
2023-05-25T18:52:22.721Z,8.05
2023-05-25T18:54:50.540Z,7.65
2023-05-25T18:57:20.801Z,9.48
2023-05-25T18:59:48.303Z,10.23
2023-05-25T19:02:42.523Z,10.20
2023-05-25T19:05:15.781Z,10.57
2023-05-25T19:07:59.425Z,11.60
2023-05-25T19:10:42.771Z,11.30
2023-05-25T19:13:24.069Z,11.38
2023-05-25T19:15:55.001Z,11.82
2023-05-25T19:18:22.774Z,12.13
2023-05-25T19:20:50.943Z,13.23
2023-05-25T19:23:25.721Z,12.13
2023-05-25T19:26:04.991Z,12.00
2023-05-25T19:29:23.010Z,11.70
2023-05-25T19:31:53.814Z,10.18
2023-05-25T19:34:24.810Z,10.13
2023-05-25T19:37:00.430Z,8.68
2023-05-25T19:39:38.860Z,8.45
2023-05-25T19:42:21.156Z,8.88
2023-05-25T19:44:49.134Z,8.27
2023-05-25T19:47:20.054Z,8.68
2023-05-25T19:49:50.816Z,8.65
2023-05-25T19:52:21.894Z,8.00
2023-05-25T19:54:50.777Z,7.70
2023-05-25T19:57:22.778Z,7.50
2023-05-25T19:59:51.493Z,7.28
2023-05-25T20:02:20.979Z,7.20
2023-05-25T20:04:48.655Z,6.78
2023-05-25T20:07:20.659Z,7.43
2023-05-25T20:09:48.586Z,6.85
2023-05-25T20:12:16.954Z,6.53
2023-05-25T20:14:49.952Z,6.65
2023-05-25T20:17:17.817Z,6.70
2023-05-25T20:19:48.008Z,6.50
2023-05-25T20:22:15.827Z,6.78
2023-05-25T20:25:07.378Z,6.88
2023-05-25T20:27:35.111Z,7.10
2023-05-25T20:30:03.058Z,6.45
2023-05-25T20:32:32.708Z,7.07
2023-05-25T20:35:00.636Z,7.05
2023-05-25T20:37:31.451Z,6.05
2023-05-25T20:39:59.265Z,6.45
2023-05-25T20:42:28.459Z,7.40
2023-05-25T20:44:56.082Z,7.10
2023-05-25T20:47:29.749Z,7.43
2023-05-25T20:49:57.552Z,6.83
2023-05-25T20:52:27.595Z,6.68
2023-05-25T20:54:58.508Z,6.15
2023-05-25T20:57:26.364Z,6.05
2023-05-25T21:00:00.176Z,6.65
2023-05-25T21:02:31.023Z,6.20
2023-05-25T21:04:58.644Z,6.63
2023-05-25T21:07:34.093Z,6.20
2023-05-25T21:10:05.072Z,6.95
2023-05-25T21:12:37.250Z,6.57
2023-05-25T21:15:07.422Z,6.78
2023-05-25T21:17:35.483Z,6.20
2023-05-25T21:20:07.283Z,6.28
2023-05-25T21:22:35.150Z,6.57
2023-05-25T21:25:02.984Z,6.22
2023-05-25T21:27:41.318Z,6.63
2023-05-25T21:30:12.186Z,5.82
2023-05-25T21:32:40.263Z,5.82
2023-05-25T21:35:08.128Z,6.63
2023-05-25T21:37:43.980Z,6.22
2023-05-25T21:40:13.545Z,5.75
2023-05-25T21:42:49.241Z,5.90
2023-05-25T21:45:19.058Z,6.18
2023-05-25T21:47:48.437Z,5.95
2023-05-25T21:50:16.581Z,6.18
2023-05-25T21:52:51.934Z,6.10
2023-05-25T21:55:20.072Z,6.28
2023-05-25T21:57:48.507Z,5.30
2023-05-25T22:00:34.698Z,5.60
2023-05-25T22:03:18.169Z,6.00
2023-05-25T22:06:01.442Z,5.05
2023-05-25T22:08:29.407Z,5.57
2023-05-25T22:11:04.436Z,5.85
2023-05-25T22:13:48.899Z,6.35
2023-05-25T22:16:20.609Z,6.10
2023-05-25T22:18:50.642Z,6.28
2023-05-25T22:21:22.222Z,6.47
2023-05-25T22:23:55.356Z,6.28
2023-05-25T22:26:28.857Z,5.72
2023-05-25T22:28:58.795Z,6.32
2023-05-25T22:34:01.554Z,5.95
2023-05-25T22:36:29.124Z,6.63
2023-05-25T22:38:56.890Z,6.53
2023-05-25T22:41:28.350Z,6.30
2023-05-25T22:44:00.937Z,6.45
2023-05-25T22:46:41.975Z,6.50
2023-05-25T22:49:12.631Z,6.38
2023-05-25T22:51:45.756Z,5.82
2023-05-25T22:54:19.757Z,6.50
2023-05-25T22:56:53.710Z,6.90
2023-05-25T22:59:26.451Z,6.57
2023-05-25T23:01:56.347Z,6.85
2023-05-25T23:04:45.001Z,6.70
2023-05-25T23:07:13.174Z,6.88
2023-05-25T23:09:41.812Z,7.07
2023-05-25T23:12:09.468Z,7.03
2023-05-25T23:14:37.125Z,7.32
2023-05-25T23:17:05.012Z,6.63
2023-05-25T23:19:32.723Z,7.15
2023-05-25T23:22:00.394Z,8.05
2023-05-25T23:24:29.909Z,8.50
2023-05-25T23:27:06.793Z,8.77
2023-05-25T23:29:37.486Z,9.57
2023-05-25T23:32:09.650Z,9.43
2023-05-25T23:34:37.531Z,9.65
2023-05-25T23:37:06.459Z,9.13
2023-05-25T23:39:34.482Z,9.50
2023-05-25T23:42:02.588Z,10.60
2023-05-25T23:44:31.085Z,10.18
2023-05-25T23:47:00.249Z,10.02
2023-05-25T23:49:32.469Z,9.73
2023-05-25T23:52:05.322Z,9.68
2023-05-25T23:54:33.064Z,9.98
2023-05-25T23:57:06.069Z,9.75
2023-05-25T23:59:36.556Z,10.35
